Time;durP1;ratioP1;P1;durP2;ratioP2;P2;SDS_P1;SDS_P2;PMS_P1;PMS_P2;Temp;Humidity;BMP_temperature;BMP_pressure;BME280_temperature;BME280_humidity;BME280_pressure;Samples;Min_cycle;Max_cycle;Signal;HPM_P1;HPM_P2
2022/01/12 00:01:15;;;;;;;20.15;13.25;;;3.70;99.90;;;;;;4994049;28;20049;-86
2022/01/12 00:03:44;;;;;;;19.98;14.23;;;3.80;99.90;;;;;;5001540;28;20160;-85
2022/01/12 00:06:09;;;;;;;19.27;12.27;;;3.70;99.90;;;;;;4999783;28;20045;-86
2022/01/12 00:08:35;;;;;;;22.10;12.73;;;3.70;99.90;;;;;;4991800;28;20400;-86
2022/01/12 00:11:03;;;;;;;18.33;12.77;;;3.70;99.90;;;;;;4991789;28;20042;-86
2022/01/12 00:13:29;;;;;;;21.63;12.90;;;3.70;99.90;;;;;;4986271;28;20117;-84
2022/01/12 00:15:55;;;;;;;21.00;12.48;;;3.70;99.90;;;;;;4999725;28;20038;-85
2022/01/12 00:18:21;;;;;;;19.90;13.18;;;3.60;99.90;;;;;;4989620;28;20507;-85
2022/01/12 00:20:50;;;;;;;24.38;14.77;;;3.60;99.90;;;;;;4971738;28;20046;-86
2022/01/12 00:23:17;;;;;;;25.10;14.63;;;3.50;99.90;;;;;;4993010;28;20120;-85
2022/01/12 00:25:57;;;;;;;25.30;14.95;;;3.40;99.90;;;;;;4983576;28;20043;-86
2022/01/12 00:33:53;;;;;;;22.98;13.50;;;3.30;99.90;;;;;;5009115;28;20053;-84
2022/01/12 00:36:20;;;;;;;22.98;13.80;;;3.20;99.90;;;;;;4994652;28;20056;-84
2022/01/12 00:38:45;;;;;;;23.13;14.73;;;3.20;99.90;;;;;;4986675;28;20038;-84
2022/01/12 00:41:11;;;;;;;25.08;15.57;;;3.20;99.90;;;;;;4991227;28;20048;-84
2022/01/12 00:43:42;;;;;;;27.55;16.08;;;3.20;99.90;;;;;;4984319;28;20052;-85
2022/01/12 00:46:08;;;;;;;24.38;15.77;;;3.10;99.90;;;;;;4999785;28;20542;-85
2022/01/12 00:48:36;;;;;;;24.00;15.60;;;3.10;99.90;;;;;;4978103;28;20042;-86
2022/01/12 00:51:03;;;;;;;26.38;16.20;;;3.10;99.90;;;;;;5006025;28;20046;-85
2022/01/12 00:53:29;;;;;;;24.25;15.23;;;3.10;99.90;;;;;;4989139;28;20034;-85
2022/01/12 00:55:55;;;;;;;25.40;16.05;;;3.10;99.90;;;;;;4996759;28;20077;-84
2022/01/12 00:58:21;;;;;;;23.33;15.10;;;3.10;99.90;;;;;;4982008;28;20034;-84
2022/01/12 01:00:47;;;;;;;23.73;15.40;;;3.10;99.90;;;;;;4992550;28;20419;-85
2022/01/12 01:03:14;;;;;;;23.05;14.43;;;3.20;99.90;;;;;;4978179;28;20050;-86
2022/01/12 01:05:40;;;;;;;27.75;17.48;;;3.20;99.90;;;;;;5007381;28;20089;-84
2022/01/12 01:08:06;;;;;;;23.17;15.60;;;3.20;99.90;;;;;;5002366;28;20495;-84
2022/01/12 01:13:00;;;;;;;27.33;17.48;;;3.20;99.90;;;;;;4995947;28;20090;-85
2022/01/12 01:16:15;;;;;;;28.45;17.13;;;3.20;99.90;;;;;;5007417;28;20042;-84
2022/01/12 01:26:30;;;;;;;23.40;14.43;;;3.20;99.90;;;;;;5012594;28;20057;-85
2022/01/12 01:28:56;;;;;;;21.67;14.80;;;3.20;99.90;;;;;;4993143;28;20037;-85
2022/01/12 01:31:28;;;;;;;23.85;15.80;;;3.20;99.90;;;;;;4979130;28;20042;-86
2022/01/12 01:33:54;;;;;;;25.65;16.02;;;3.20;99.90;;;;;;4984757;28;20592;-86
2022/01/12 01:36:20;;;;;;;26.17;16.25;;;3.20;99.90;;;;;;5004349;28;20038;-85
2022/01/12 01:38:46;;;;;;;30.10;18.52;;;3.20;99.90;;;;;;4995556;28;20038;-85
2022/01/12 01:41:11;;;;;;;28.27;19.00;;;3.20;99.90;;;;;;4990125;28;20121;-85
2022/01/12 01:54:33;;;;;;;39.42;23.88;;;3.20;99.90;;;;;;4998739;28;20044;-84
2022/01/12 01:56:59;;;;;;;36.90;23.67;;;3.20;99.90;;;;;;4991003;28;20049;-84
2022/01/12 01:59:24;;;;;;;33.78;22.42;;;3.20;99.90;;;;;;4979486;28;20044;-85
2022/01/12 02:01:50;;;;;;;31.58;20.95;;;3.20;99.90;;;;;;4986438;28;20105;-85
2022/01/12 02:04:16;;;;;;;38.60;24.42;;;3.20;99.90;;;;;;4986552;28;20411;-85
2022/01/12 02:06:41;;;;;;;34.05;22.77;;;3.20;99.90;;;;;;4993885;28;20664;-85
2022/01/12 02:09:07;;;;;;;35.63;21.67;;;3.20;99.90;;;;;;4978923;28;20241;-84
2022/01/12 02:11:33;;;;;;;35.58;22.23;;;3.20;99.90;;;;;;4988931;28;20053;-84
2022/01/12 02:13:59;;;;;;;30.77;19.88;;;3.20;99.90;;;;;;4995199;28;20034;-86
2022/01/12 02:16:35;;;;;;;31.02;19.00;;;3.20;99.90;;;;;;4986558;28;20076;-84
2022/01/12 02:35:47;;;;;;;30.17;18.63;;;3.20;99.90;;;;;;4995758;28;20222;-85
2022/01/12 02:40:56;;;;;;;30.80;18.63;;;3.20;99.90;;;;;;4995773;28;20105;-85
2022/01/12 02:54:22;;;;;;;35.47;19.58;;;3.20;99.90;;;;;;4972930;28;20040;-87
2022/01/12 02:56:48;;;;;;;31.25;18.70;;;3.20;99.90;;;;;;4976726;28;20085;-86
2022/01/12 02:59:14;;;;;;;28.38;17.13;;;3.20;99.90;;;;;;4976558;28;20037;-85
2022/01/12 03:02:02;;;;;;;29.25;18.50;;;3.20;99.90;;;;;;4994624;28;20061;-87
2022/01/12 03:04:25;;;;;;;30.02;17.65;;;3.20;99.90;;;;;;4994646;28;20038;-85
2022/01/12 03:06:52;;;;;;;30.60;18.00;;;3.20;99.90;;;;;;4993395;28;20030;-85
2022/01/12 03:09:18;;;;;;;31.27;18.17;;;3.20;99.90;;;;;;4977306;28;20037;-86
2022/01/12 03:11:43;;;;;;;28.35;17.77;;;3.20;99.90;;;;;;4977347;28;20506;-84
2022/01/12 03:14:10;;;;;;;32.17;18.77;;;3.20;99.90;;;;;;4994519;28;20105;-87
2022/01/12 03:16:35;;;;;;;33.47;20.50;;;3.30;99.90;;;;;;4994501;28;20045;-84
2022/01/12 03:19:03;;;;;;;42.05;24.23;;;3.30;99.90;;;;;;4977188;28;20026;-85
2022/01/12 03:21:33;;;;;;;40.13;23.92;;;3.30;99.90;;;;;;4977176;28;20112;-85
2022/01/12 03:23:59;;;;;;;42.72;25.05;;;3.30;99.90;;;;;;4977173;28;20035;-85
2022/01/12 03:26:28;;;;;;;37.05;22.45;;;3.20;99.90;;;;;;4977361;28;20528;-85
2022/01/12 03:28:55;;;;;;;48.33;26.73;;;3.20;99.90;;;;;;4977189;28;20061;-85
2022/01/12 03:31:24;;;;;;;41.33;25.48;;;3.20;99.90;;;;;;4977373;28;20050;-85
2022/01/12 03:36:39;;;;;;;44.17;27.23;;;3.20;99.90;;;;;;4994759;28;20044;-84
2022/01/12 03:39:06;;;;;;;57.45;32.40;;;3.20;99.90;;;;;;4994668;28;20420;-84
2022/01/12 03:41:35;;;;;;;53.63;30.48;;;3.20;99.90;;;;;;4976894;28;20093;-84
2022/01/12 03:44:02;;;;;;;44.92;26.52;;;3.20;99.90;;;;;;4977157;28;20117;-85
2022/01/12 03:46:40;;;;;;;47.78;29.27;;;3.20;99.90;;;;;;4978078;28;20046;-87
2022/01/12 03:49:06;;;;;;;43.42;27.70;;;3.20;99.90;;;;;;4976762;28;20034;-85
2022/01/12 03:51:33;;;;;;;47.33;29.52;;;3.20;99.90;;;;;;4977232;28;20042;-83
2022/01/12 03:53:59;;;;;;;48.10;26.55;;;3.20;99.90;;;;;;4999791;28;20100;-85
2022/01/12 03:56:24;;;;;;;44.88;25.73;;;3.20;99.90;;;;;;4982455;28;20413;-85
2022/01/12 03:58:50;;;;;;;45.05;24.70;;;3.20;99.90;;;;;;4979612;28;20031;-85
2022/01/12 04:01:16;;;;;;;39.95;23.50;;;3.20;99.90;;;;;;4996283;28;20030;-85
2022/01/12 04:03:45;;;;;;;45.75;26.40;;;3.20;99.90;;;;;;4980546;28;20380;-84
2022/01/12 04:08:56;;;;;;;39.55;24.17;;;3.30;99.90;;;;;;4994875;28;20148;-85
2022/01/12 04:11:22;;;;;;;44.60;25.77;;;3.30;99.90;;;;;;4977383;28;20042;-86
2022/01/12 04:13:49;;;;;;;45.35;26.70;;;3.40;99.90;;;;;;4976967;28;20519;-85
2022/01/12 04:16:16;;;;;;;43.33;25.55;;;3.30;99.90;;;;;;4976426;28;20030;-84
2022/01/12 04:18:42;;;;;;;43.92;25.48;;;3.30;99.90;;;;;;4976475;28;20396;-85
2022/01/12 04:21:09;;;;;;;48.70;27.83;;;3.30;99.90;;;;;;4977050;28;20033;-84
2022/01/12 04:23:37;;;;;;;47.03;29.38;;;3.30;99.90;;;;;;4976762;28;20022;-85
2022/01/12 04:26:13;;;;;;;44.33;26.60;;;3.30;99.90;;;;;;4979892;28;20062;-87
2022/01/12 04:28:41;;;;;;;43.60;26.38;;;3.30;99.90;;;;;;4980774;28;20520;-86
2022/01/12 04:31:07;;;;;;;44.13;26.75;;;3.30;99.90;;;;;;4980439;28;20447;-85
2022/01/12 04:33:35;;;;;;;44.38;26.88;;;3.30;99.90;;;;;;4980728;28;20458;-87
2022/01/12 04:36:01;;;;;;;45.85;26.38;;;3.30;99.90;;;;;;4997459;28;20037;-84
2022/01/12 04:38:30;;;;;;;44.15;26.10;;;3.30;99.90;;;;;;4997599;28;20035;-86
2022/01/12 04:40:56;;;;;;;44.45;25.25;;;3.30;99.90;;;;;;4980161;28;20508;-86
2022/01/12 04:43:23;;;;;;;40.85;24.83;;;3.30;99.90;;;;;;4997899;28;20109;-85
2022/01/12 04:48:34;;;;;;;50.55;29.48;;;3.30;99.90;;;;;;4997547;28;20035;-84
2022/01/12 04:51:00;;;;;;;53.28;27.45;;;3.20;99.90;;;;;;4980046;28;20042;-87
2022/01/12 04:53:26;;;;;;;42.40;25.08;;;3.20;99.90;;;;;;4997710;28;20030;-86
2022/01/12 04:55:52;;;;;;;44.60;25.65;;;3.20;99.90;;;;;;4996202;28;20559;-85
2022/01/12 04:58:19;;;;;;;52.25;29.70;;;3.30;99.90;;;;;;4980040;28;20108;-85
2022/01/12 05:00:46;;;;;;;55.42;32.00;;;3.30;99.90;;;;;;4979873;28;20433;-86
2022/01/12 05:13:53;;;;;;;47.58;28.35;;;3.30;99.90;;;;;;4997635;28;20085;-86
2022/01/12 05:16:21;;;;;;;49.38;29.33;;;3.30;99.90;;;;;;4979446;28;20035;-85
2022/01/12 05:18:48;;;;;;;43.15;26.30;;;3.30;99.90;;;;;;4995436;28;20026;-86
2022/01/12 05:21:15;;;;;;;37.20;22.90;;;3.30;99.90;;;;;;4979422;28;20496;-86
2022/01/12 05:23:44;;;;;;;40.83;23.15;;;3.40;99.90;;;;;;4995890;28;20071;-85
2022/01/12 05:26:10;;;;;;;39.78;23.48;;;3.40;99.90;;;;;;4979371;28;20050;-85
2022/01/12 05:28:40;;;;;;;43.13;25.00;;;3.40;99.90;;;;;;4996847;28;20090;-86
2022/01/12 05:31:07;;;;;;;35.55;21.50;;;3.40;99.90;;;;;;4995885;28;20034;-85
2022/01/12 05:33:34;;;;;;;39.42;23.10;;;3.40;99.90;;;;;;4979733;28;20033;-86
2022/01/12 05:36:03;;;;;;;39.05;22.58;;;3.50;99.90;;;;;;4978969;28;20045;-85
2022/01/12 05:38:29;;;;;;;38.20;24.13;;;3.40;99.90;;;;;;4979427;28;20042;-85
2022/01/12 05:41:06;;;;;;;43.42;24.83;;;3.40;99.90;;;;;;4995978;28;20034;-86
2022/01/12 05:43:36;;;;;;;39.50;23.63;;;3.40;99.90;;;;;;4979789;28;20026;-86
2022/01/12 05:46:10;;;;;;;43.63;25.45;;;3.40;99.90;;;;;;4997254;28;20058;-85
2022/01/12 05:51:24;;;;;;;43.67;24.98;;;3.40;99.90;;;;;;4996955;28;20061;-86
2022/01/12 05:53:50;;;;;;;41.70;24.48;;;3.40;99.90;;;;;;4980587;28;20023;-86
2022/01/12 05:56:16;;;;;;;41.58;24.27;;;3.40;99.90;;;;;;4983288;28;20050;-85
2022/01/12 05:58:41;;;;;;;44.55;25.83;;;3.40;99.90;;;;;;5000907;28;20391;-86
2022/01/12 06:01:07;;;;;;;47.22;26.63;;;3.40;99.90;;;;;;4983934;28;20031;-85
2022/01/12 06:03:33;;;;;;;48.40;27.23;;;3.40;99.90;;;;;;4996388;28;20045;-85
2022/01/12 06:05:58;;;;;;;51.83;29.20;;;3.40;99.90;;;;;;5003354;28;20034;-86
2022/01/12 06:08:24;;;;;;;48.63;27.85;;;3.40;99.90;;;;;;5003599;28;20100;-86
2022/01/12 06:10:49;;;;;;;47.83;26.92;;;3.40;99.90;;;;;;5019036;28;20110;-85
2022/01/12 06:13:15;;;;;;;46.53;26.65;;;3.40;99.90;;;;;;5003237;28;20081;-86
2022/01/12 06:15:41;;;;;;;45.55;26.27;;;3.40;99.90;;;;;;5018929;28;20073;-85
2022/01/12 06:18:07;;;;;;;45.60;25.83;;;3.40;99.90;;;;;;5016426;28;20034;-88
2022/01/12 06:20:33;;;;;;;40.53;24.15;;;3.40;99.90;;;;;;5018200;28;20038;-86
2022/01/12 06:22:58;;;;;;;45.45;25.20;;;3.40;99.90;;;;;;5001815;28;20041;-85
2022/01/12 06:25:24;;;;;;;41.75;24.88;;;3.40;99.90;;;;;;5017691;28;20014;-87
2022/01/12 06:27:57;;;;;;;42.75;24.02;;;3.50;99.90;;;;;;5019400;28;20065;-88
2022/01/12 06:32:57;;;;;;;38.58;21.77;;;3.50;99.90;;;;;;4998537;28;20035;-89
2022/01/12 06:35:25;;;;;;;42.00;24.17;;;3.50;99.90;;;;;;4997877;28;20043;-88
2022/01/12 06:37:51;;;;;;;39.65;21.92;;;3.50;99.90;;;;;;4980509;28;20461;-87
2022/01/12 06:40:18;;;;;;;39.53;20.48;;;3.50;99.90;;;;;;4980116;28;20069;-87
2022/01/12 06:42:45;;;;;;;41.05;22.27;;;3.50;99.90;;;;;;4997950;28;20034;-87
2022/01/12 06:45:11;;;;;;;40.85;22.60;;;3.50;99.90;;;;;;4979786;28;20374;-87
2022/01/12 06:47:37;;;;;;;38.85;20.65;;;3.60;99.90;;;;;;4979335;28;20027;-87
2022/01/12 06:50:04;;;;;;;38.47;20.73;;;3.50;99.90;;;;;;4997477;28;20038;-90
2022/01/12 06:52:30;;;;;;;39.90;22.17;;;3.60;99.90;;;;;;4979597;28;20157;-86
2022/01/12 06:54:55;;;;;;;39.28;20.70;;;3.60;99.90;;;;;;4996798;28;20078;-86
2022/01/12 06:57:21;;;;;;;35.13;20.13;;;3.60;99.90;;;;;;4979520;28;20038;-87
2022/01/12 06:59:47;;;;;;;36.15;19.83;;;3.70;99.90;;;;;;4979337;28;20129;-86
2022/01/12 07:02:13;;;;;;;39.92;22.30;;;3.70;99.90;;;;;;4979396;28;20030;-88
2022/01/12 07:04:38;;;;;;;37.25;20.40;;;3.70;99.90;;;;;;4979426;28;20104;-89
2022/01/12 07:07:04;;;;;;;33.08;18.88;;;3.70;99.90;;;;;;4978644;28;20477;-88
2022/01/12 07:09:30;;;;;;;38.05;19.50;;;3.70;99.90;;;;;;4979115;28;20040;-90
2022/01/12 07:11:55;;;;;;;38.60;19.65;;;3.70;99.90;;;;;;4979082;28;20129;-89
2022/01/12 07:14:21;;;;;;;39.75;20.02;;;3.70;99.90;;;;;;4978986;28;20046;-87
2022/01/12 07:16:47;;;;;;;35.22;18.80;;;3.70;99.90;;;;;;4978944;28;20124;-87
2022/01/12 07:19:12;;;;;;;36.63;19.08;;;3.70;99.90;;;;;;4979164;28;20030;-88
2022/01/12 07:21:38;;;;;;;39.90;19.88;;;3.70;99.90;;;;;;4979334;28;20038;-88
2022/01/12 07:24:05;;;;;;;41.95;21.30;;;3.70;99.90;;;;;;4996307;28;20026;-87
2022/01/12 07:26:30;;;;;;;41.58;21.13;;;3.70;99.90;;;;;;4996561;28;20031;-86
2022/01/12 07:28:56;;;;;;;39.15;20.33;;;3.70;99.90;;;;;;4978923;28;20038;-87
2022/01/12 07:31:23;;;;;;;40.90;19.83;;;3.70;99.90;;;;;;4978737;28;20066;-87
2022/01/12 07:33:50;;;;;;;43.08;20.92;;;3.70;99.90;;;;;;4996272;28;20515;-88
2022/01/12 07:36:17;;;;;;;36.10;17.88;;;3.70;99.90;;;;;;4979818;28;20057;-88
2022/01/12 07:38:43;;;;;;;40.10;20.25;;;3.70;99.90;;;;;;4996296;28;20027;-87
2022/01/12 07:41:09;;;;;;;41.90;19.58;;;3.70;99.90;;;;;;4980890;28;20133;-87
2022/01/12 07:43:34;;;;;;;40.55;19.30;;;3.70;99.90;;;;;;4999785;28;20062;-87
2022/01/12 07:46:00;;;;;;;37.83;18.02;;;3.70;99.90;;;;;;4988620;28;20034;-86
2022/01/12 07:48:26;;;;;;;35.17;16.33;;;3.70;99.90;;;;;;4992275;28;20117;-87
2022/01/12 07:50:52;;;;;;;38.65;18.48;;;3.70;99.90;;;;;;4990165;28;20109;-88
2022/01/12 07:53:17;;;;;;;36.45;18.08;;;3.70;99.90;;;;;;5006225;28;20184;-88
2022/01/12 07:55:43;;;;;;;51.88;19.98;;;3.70;99.90;;;;;;4989831;28;20034;-85
2022/01/12 07:58:09;;;;;;;42.00;18.45;;;3.70;99.90;;;;;;4993088;28;20030;-85
2022/01/12 08:00:35;;;;;;;39.65;16.67;;;3.70;99.90;;;;;;5007944;28;20049;-86
2022/01/12 08:03:01;;;;;;;36.33;16.95;;;3.70;99.90;;;;;;4993579;28;20029;-87
2022/01/12 08:05:26;;;;;;;40.50;17.85;;;3.70;99.90;;;;;;4999337;28;20452;-86
2022/01/12 08:07:54;;;;;;;44.65;19.30;;;3.70;99.90;;;;;;5004091;28;20030;-88
2022/01/12 08:10:20;;;;;;;33.63;17.27;;;3.70;99.90;;;;;;4984422;28;20136;-87
2022/01/12 08:12:46;;;;;;;34.72;16.63;;;3.70;99.90;;;;;;4980112;28;20026;-87
2022/01/12 08:15:12;;;;;;;34.72;17.23;;;3.70;99.90;;;;;;4982592;28;20388;-87
2022/01/12 08:17:38;;;;;;;36.13;16.27;;;3.70;99.90;;;;;;4988450;28;20030;-86
2022/01/12 08:20:06;;;;;;;33.97;15.65;;;3.70;99.90;;;;;;4999547;28;20061;-87
2022/01/12 08:22:33;;;;;;;36.90;16.25;;;3.80;99.90;;;;;;4979860;28;20121;-84
2022/01/12 08:24:58;;;;;;;37.15;16.77;;;3.80;99.90;;;;;;5012875;28;20038;-89
2022/01/12 08:27:24;;;;;;;38.72;15.95;;;3.80;99.90;;;;;;4993213;28;20129;-88
2022/01/12 08:29:54;;;;;;;44.33;17.77;;;3.80;99.90;;;;;;5014585;28;20062;-86
2022/01/12 08:32:19;;;;;;;50.42;19.08;;;3.80;99.90;;;;;;4996766;28;20512;-88
2022/01/12 08:34:45;;;;;;;42.40;18.35;;;3.80;99.90;;;;;;4996422;28;20030;-86
2022/01/12 08:37:10;;;;;;;47.85;21.08;;;3.80;99.90;;;;;;4996596;28;20037;-88
2022/01/12 08:39:36;;;;;;;50.33;20.27;;;3.70;99.90;;;;;;4996557;28;20034;-87
2022/01/12 08:42:02;;;;;;;46.53;19.75;;;3.70;99.90;;;;;;5014326;28;20109;-87
2022/01/12 08:44:28;;;;;;;38.47;17.35;;;3.80;99.90;;;;;;4996975;28;20092;-87
2022/01/12 08:46:53;;;;;;;38.25;16.05;;;3.70;99.90;;;;;;4996604;28;20038;-87
2022/01/12 08:49:19;;;;;;;38.60;15.98;;;3.70;99.90;;;;;;4996570;28;20092;-90
2022/01/12 08:51:44;;;;;;;39.28;16.67;;;3.80;99.90;;;;;;5013860;28;20539;-88
2022/01/12 08:54:10;;;;;;;38.78;16.20;;;3.80;99.90;;;;;;5014077;28;20472;-90
2022/01/12 08:56:37;;;;;;;38.88;16.40;;;3.80;99.90;;;;;;4996975;28;20058;-87
2022/01/12 08:59:03;;;;;;;40.80;15.88;;;3.80;99.90;;;;;;5014629;28;20022;-88
2022/01/12 09:01:29;;;;;;;39.33;17.77;;;3.80;99.90;;;;;;5014139;28;20037;-87
2022/01/12 09:03:55;;;;;;;46.25;18.25;;;3.80;99.90;;;;;;4996843;28;20030;-86
2022/01/12 09:06:20;;;;;;;45.33;18.15;;;3.80;99.90;;;;;;4995999;28;20069;-87
2022/01/12 09:08:46;;;;;;;40.33;16.45;;;3.80;99.90;;;;;;4996329;28;20034;-87
2022/01/12 09:11:13;;;;;;;44.72;17.75;;;3.80;99.90;;;;;;5015152;28;20045;-85
2022/01/12 09:13:40;;;;;;;43.92;17.30;;;3.80;99.90;;;;;;4997744;28;20026;-87
2022/01/12 09:16:06;;;;;;;38.35;16.65;;;3.90;99.90;;;;;;4999218;28;20092;-86
2022/01/12 09:18:35;;;;;;;40.65;15.82;;;3.90;99.90;;;;;;4998233;28;20169;-87
2022/01/12 09:21:00;;;;;;;42.08;16.65;;;3.90;99.90;;;;;;5015383;28;20398;-86
2022/01/12 09:23:26;;;;;;;40.00;16.50;;;3.90;99.90;;;;;;4997769;28;20030;-87
2022/01/12 09:25:52;;;;;;;38.78;17.33;;;4.00;99.90;;;;;;4998460;28;20037;-88
2022/01/12 09:28:17;;;;;;;38.22;15.57;;;4.00;99.90;;;;;;4999047;28;20022;-88
2022/01/12 09:30:43;;;;;;;42.55;18.38;;;4.00;99.90;;;;;;4998855;28;20042;-88
2022/01/12 09:33:09;;;;;;;41.78;17.23;;;4.00;99.90;;;;;;5016205;28;20037;-88
2022/01/12 09:35:35;;;;;;;39.97;16.58;;;4.00;99.90;;;;;;4998998;28;20030;-88
2022/01/12 09:38:01;;;;;;;39.10;17.65;;;4.00;99.90;;;;;;4998932;28;20037;-89
2022/01/12 09:40:26;;;;;;;40.45;17.55;;;4.10;99.90;;;;;;4999152;28;20393;-87
2022/01/12 09:42:53;;;;;;;46.90;19.25;;;4.10;99.90;;;;;;4999089;28;20030;-88
2022/01/12 09:45:19;;;;;;;47.40;19.95;;;4.00;99.90;;;;;;4998971;28;20125;-89
2022/01/12 09:47:47;;;;;;;45.65;19.52;;;4.00;99.90;;;;;;5015436;28;20060;-87
2022/01/12 09:50:16;;;;;;;45.40;20.55;;;4.00;99.90;;;;;;4999595;28;20038;-88
2022/01/12 09:52:42;;;;;;;43.97;17.65;;;4.00;99.90;;;;;;5017152;28;20026;-90
2022/01/12 09:55:08;;;;;;;42.13;17.70;;;4.10;99.90;;;;;;4999723;28;20038;-89
2022/01/12 09:57:34;;;;;;;45.70;17.88;;;4.10;99.90;;;;;;4999826;28;20042;-90
2022/01/12 10:00:00;;;;;;;41.17;17.13;;;4.10;99.90;;;;;;4999374;28;20125;-88
2022/01/12 10:02:25;;;;;;;42.80;17.30;;;4.10;99.90;;;;;;5016951;28;20480;-89
2022/01/12 10:05:06;;;;;;;43.85;18.60;;;4.10;99.90;;;;;;4999046;28;20026;-88
2022/01/12 10:07:33;;;;;;;46.08;18.27;;;4.20;99.90;;;;;;4999426;28;20060;-89
2022/01/12 10:10:06;;;;;;;53.28;21.67;;;4.20;99.90;;;;;;4999160;28;20034;-90
2022/01/12 10:12:34;;;;;;;52.22;20.80;;;4.20;99.90;;;;;;4983887;28;20038;-89
2022/01/12 10:15:10;;;;;;;48.28;20.33;;;4.20;99.90;;;;;;4999497;28;20560;-88
2022/01/12 10:17:45;;;;;;;46.13;18.67;;;4.20;99.90;;;;;;4999227;28;20065;-88
2022/01/12 10:20:12;;;;;;;40.63;16.63;;;4.20;99.90;;;;;;5018066;28;20030;-87
2022/01/12 10:22:42;;;;;;;42.28;17.20;;;4.20;99.90;;;;;;5001020;28;20045;-88
2022/01/12 10:25:19;;;;;;;42.00;18.63;;;4.20;99.90;;;;;;5022493;28;20212;-88
2022/01/12 10:27:45;;;;;;;37.20;16.30;;;4.30;99.90;;;;;;5021915;28;20033;-86
2022/01/12 10:30:23;;;;;;;40.85;18.25;;;4.30;99.90;;;;;;5003478;28;20041;-87
2022/01/12 10:33:03;;;;;;;40.38;17.40;;;4.30;99.90;;;;;;5003731;28;20042;-87
2022/01/12 10:35:30;;;;;;;42.17;17.25;;;4.40;99.90;;;;;;5001490;28;20038;-88
2022/01/12 10:38:10;;;;;;;35.75;15.55;;;4.40;99.90;;;;;;5001402;28;20026;-86
2022/01/12 10:41:15;;;;;;;36.28;15.52;;;4.50;99.90;;;;;;5002801;28;20377;-87
2022/01/12 10:43:44;;;;;;;;;;;4.50;99.90;;;;;;4920623;29;20039;-86
2022/01/12 10:46:17;;;;;;;40.72;16.52;;;4.50;99.90;;;;;;5001991;28;19916;-89
2022/01/12 10:48:45;;;;;;;40.78;17.58;;;4.50;99.90;;;;;;4999561;28;20037;-89
2022/01/12 10:51:16;;;;;;;45.33;18.75;;;4.60;99.90;;;;;;4998444;28;20034;-89
2022/01/12 10:53:42;;;;;;;43.70;18.23;;;4.50;99.90;;;;;;5014818;28;20078;-88
2022/01/12 10:56:11;;;;;;;40.40;17.27;;;4.60;99.90;;;;;;4997854;28;20241;-88
2022/01/12 10:58:40;;;;;;;34.70;15.10;;;4.60;99.90;;;;;;5014449;28;20388;-89
2022/01/12 11:01:06;;;;;;;36.40;15.82;;;4.70;99.90;;;;;;5015803;28;20038;-90
2022/01/12 11:03:33;;;;;;;33.13;14.30;;;4.70;99.90;;;;;;4997964;28;20495;-89
2022/01/12 11:05:59;;;;;;;34.67;14.35;;;4.80;99.90;;;;;;4997543;28;20108;-89
2022/01/12 11:08:26;;;;;;;33.50;14.05;;;4.80;99.90;;;;;;4997922;28;20034;-88
2022/01/12 11:10:57;;;;;;;42.95;17.65;;;4.90;99.90;;;;;;4998493;28;20124;-88
2022/01/12 11:13:24;;;;;;;40.05;16.45;;;4.90;99.90;;;;;;4997705;28;20037;-89
2022/01/12 11:15:50;;;;;;;39.90;17.42;;;4.90;99.90;;;;;;5015511;28;20034;-88
2022/01/12 11:18:19;;;;;;;41.22;16.88;;;4.90;99.90;;;;;;4997843;28;20022;-89
2022/01/12 11:20:47;;;;;;;38.90;16.58;;;4.90;99.90;;;;;;5016201;28;20038;-89
2022/01/12 11:23:18;;;;;;;35.00;15.15;;;5.00;99.90;;;;;;5000118;28;20034;-89
2022/01/12 11:25:48;;;;;;;33.70;15.75;;;5.00;99.90;;;;;;5001073;28;20042;-87
2022/01/12 11:28:20;;;;;;;35.25;14.85;;;5.00;99.90;;;;;;4990785;28;20125;-90
2022/01/12 11:30:52;;;;;;;33.20;14.80;;;5.10;99.90;;;;;;4978512;28;20140;-91
2022/01/12 11:33:20;;;;;;;31.42;14.57;;;5.10;99.90;;;;;;4995941;28;20085;-90
2022/01/12 11:35:49;;;;;;;37.38;16.30;;;5.10;99.90;;;;;;4978706;28;20061;-89
2022/01/12 11:38:35;;;;;;;33.38;16.13;;;5.10;99.90;;;;;;4978809;28;20026;-90
2022/01/12 11:41:14;;;;;;;38.88;16.80;;;5.10;99.90;;;;;;4987012;28;20034;-88
2022/01/12 11:43:50;;;;;;;36.58;15.75;;;5.10;99.90;;;;;;5004171;28;20645;-90
2022/01/12 11:46:22;;;;;;;35.20;15.25;;;5.10;99.90;;;;;;4983787;28;20041;-89
2022/01/12 11:48:55;;;;;;;37.85;14.70;;;5.10;99.90;;;;;;4982828;28;20038;-89
2022/01/12 11:51:33;;;;;;;34.33;14.20;;;5.20;99.90;;;;;;4983136;28;20037;-88
2022/01/12 11:54:07;;;;;;;36.00;15.32;;;5.10;99.90;;;;;;4999182;28;20061;-89
2022/01/12 11:56:32;;;;;;;32.28;14.10;;;5.10;99.90;;;;;;4981317;28;20377;-90
2022/01/12 11:59:07;;;;;;;37.50;15.68;;;5.10;99.90;;;;;;4996011;28;20040;-90
2022/01/12 12:01:40;;;;;;;36.42;15.88;;;5.10;99.90;;;;;;4980036;28;20042;-90
2022/01/12 12:04:06;;;;;;;35.15;15.73;;;5.10;99.90;;;;;;4994741;28;20034;-90
2022/01/12 12:06:43;;;;;;;40.63;18.30;;;5.00;99.90;;;;;;4995991;28;20070;-89
2022/01/12 12:09:11;;;;;;;35.55;15.40;;;5.00;99.90;;;;;;4996279;28;20122;-91
2022/01/12 12:11:37;;;;;;;35.58;15.23;;;5.10;99.90;;;;;;4994709;28;20057;-90
2022/01/12 12:14:05;;;;;;;39.72;17.92;;;5.00;99.90;;;;;;4978446;28;20030;-90
2022/01/12 12:16:32;;;;;;;44.20;17.95;;;5.00;99.90;;;;;;4977670;28;20101;-89
2022/01/12 12:19:02;;;;;;;39.30;16.73;;;5.00;99.90;;;;;;4994264;28;20130;-86
2022/01/12 12:21:29;;;;;;;48.67;20.13;;;5.00;99.90;;;;;;4976780;28;20479;-87
2022/01/12 12:23:54;;;;;;;40.88;18.42;;;5.10;99.90;;;;;;4994744;28;20061;-90
2022/01/12 12:26:22;;;;;;;51.90;20.83;;;5.20;99.90;;;;;;4995551;28;20468;-90
2022/01/12 12:28:55;;;;;;;45.10;19.00;;;5.40;99.90;;;;;;4977494;28;20034;-91
2022/01/12 12:31:26;;;;;;;40.00;18.02;;;5.60;99.90;;;;;;4978258;28;20038;-89
2022/01/12 12:34:05;;;;;;;42.15;18.20;;;5.80;99.90;;;;;;4978674;28;20050;-88
2022/01/12 12:36:31;;;;;;;39.55;16.90;;;5.80;99.90;;;;;;4982290;28;20035;-87
2022/01/12 12:39:09;;;;;;;41.80;18.23;;;5.60;99.90;;;;;;5002878;28;20115;-89
2022/01/12 12:41:40;;;;;;;37.83;16.08;;;5.60;99.90;;;;;;4977199;28;20575;-85
2022/01/12 12:44:07;;;;;;;31.35;14.52;;;5.50;99.90;;;;;;4977285;28;20045;-88
2022/01/12 12:46:33;;;;;;;51.70;19.80;;;5.50;99.90;;;;;;4980056;28;20026;-88
2022/01/12 12:48:58;;;;;;;43.50;18.70;;;5.40;99.90;;;;;;4982522;28;20111;-89
2022/01/12 12:51:24;;;;;;;43.30;17.50;;;5.30;99.90;;;;;;4999720;28;20043;-87
2022/01/12 12:53:56;;;;;;;47.08;18.52;;;5.30;99.90;;;;;;4981515;28;20063;-88
2022/01/12 12:56:27;;;;;;;46.35;19.17;;;5.30;99.90;;;;;;4980475;28;20129;-88
2022/01/12 12:58:55;;;;;;;48.65;20.17;;;5.30;99.90;;;;;;4998327;28;20117;-85
2022/01/12 13:01:23;;;;;;;48.53;20.90;;;5.40;99.90;;;;;;4980046;28;20058;-87
2022/01/12 13:03:54;;;;;;;43.55;20.30;;;5.40;99.90;;;;;;4996762;28;20076;-87
2022/01/12 13:06:26;;;;;;;41.22;17.73;;;5.40;99.90;;;;;;4997879;28;20057;-88
2022/01/12 13:08:53;;;;;;;44.30;17.73;;;5.50;99.90;;;;;;4997697;28;20141;-87
2022/01/12 13:11:20;;;;;;;39.63;17.52;;;5.50;99.90;;;;;;4980260;28;20057;-88
2022/01/12 13:13:59;;;;;;;43.10;19.42;;;5.50;99.90;;;;;;4980580;28;20084;-88
2022/01/12 13:16:26;;;;;;;41.22;18.60;;;5.50;99.90;;;;;;4979756;28;20480;-87
2022/01/12 13:19:03;;;;;;;42.17;18.05;;;5.60;99.90;;;;;;4979855;28;20041;-88
2022/01/12 13:21:29;;;;;;;42.65;17.67;;;5.70;99.90;;;;;;4979878;28;20031;-88
2022/01/12 13:23:57;;;;;;;38.17;17.33;;;5.70;99.90;;;;;;4997654;28;20175;-88
2022/01/12 13:26:25;;;;;;;36.05;16.13;;;5.70;99.90;;;;;;4980156;28;20037;-88
2022/01/12 13:28:51;;;;;;;34.90;15.68;;;5.70;99.90;;;;;;4980684;28;20105;-87
2022/01/12 13:31:21;;;;;;;29.17;14.18;;;5.70;99.90;;;;;;4979816;28;20049;-87
2022/01/12 13:33:50;;;;;;;37.50;17.05;;;5.60;99.90;;;;;;4979869;28;20060;-88
2022/01/12 13:36:25;;;;;;;35.22;15.77;;;5.60;99.90;;;;;;4979371;28;20082;-88
2022/01/12 13:38:58;;;;;;;32.72;14.25;;;5.50;99.90;;;;;;4979688;28;20491;-88
2022/01/12 13:41:30;;;;;;;36.40;16.20;;;5.50;99.90;;;;;;4996640;28;20065;-87
2022/01/12 13:43:58;;;;;;;31.52;15.02;;;5.50;99.90;;;;;;4979678;28;20027;-86
2022/01/12 13:46:33;;;;;;;36.25;17.35;;;5.50;99.90;;;;;;4979290;28;20442;-87
2022/01/12 13:51:42;;;;;;;51.08;22.73;;;5.40;99.90;;;;;;4997112;28;20050;-88
2022/01/12 13:54:11;;;;;;;43.88;19.70;;;5.30;99.90;;;;;;4979503;28;20507;-88
2022/01/12 13:56:45;;;;;;;42.97;20.75;;;5.20;99.90;;;;;;4978969;28;20054;-85
2022/01/12 13:59:13;;;;;;;48.88;22.80;;;5.20;99.90;;;;;;4994708;28;20022;-84
2022/01/12 14:01:41;;;;;;;41.20;21.90;;;5.20;99.90;;;;;;4989866;28;20042;-86
2022/01/12 14:04:15;;;;;;;45.72;21.30;;;5.20;99.90;;;;;;4983705;28;20041;-85
2022/01/12 14:06:46;;;;;;;43.63;21.73;;;5.20;99.90;;;;;;4983618;28;20042;-86